Tasman Sea — WDB5559 — position and weather

sailwx.info

Track history (hours):
 
Tides and Currents Weather Stations Pressure Air Temp Water Temp Dewpoint Dewpoint Depression Visibility Wind Speed Wind Dir Waves Ship Positions

Tasman Sea

Owner: Kirby Offshore Marine, LLC, Staten Island, NY. More information available from US FCC via Universal Licensing System and Coast Guard Vessel Documentation Center.

Last reported at 2017-Dec-11 17:00 UTC. Time now 2017-Dec-14 17:19 UTC.
Position N 40°40' W 074°03'.

Length 36 m; draft 6.7 m.

Type: . MMSI: 366910960.

Date/timePositionNaut miles runAvg speedWind from/ knotsBaromVisibWave heightAir tempDewpointWater temp
2017-Dec-11 17:00N 40°40' W 074°03'0 0.1
2017-Dec-11 16:30N 40°40' W 074°03'0 0.1
2017-Dec-11 16:00N 40°40' W 074°02'0 0.1
2017-Dec-11 15:30N 40°40' W 074°03'0 0.0
2017-Dec-11 15:00N 40°40' W 074°03'0 0.0
2017-Dec-11 14:30N 40°40' W 074°03'0 0.0
2017-Dec-11 14:00N 40°40' W 074°03'0 0.0
2017-Dec-11 13:30N 40°40' W 074°03'0 0.0
2017-Dec-11 13:00N 40°40' W 074°03'0 0.0
2017-Dec-11 12:30N 40°40' W 074°03'0 0.0
2017-Dec-11 12:00N 40°40' W 074°03'0 0.1
2017-Dec-11 11:30N 40°40' W 074°03'0 0.2
2017-Dec-11 10:57N 40°40' W 074°02'0 0.1
2017-Dec-11 10:30N 40°40' W 074°02'0 0.0
2017-Dec-11 10:00N 40°40' W 074°02'0 0.1
2017-Dec-11 09:30N 40°40' W 074°02'0 0.0
2017-Dec-11 09:00N 40°40' W 074°02'0 0.0
2017-Dec-11 08:30N 40°40' W 074°02'0 0.0
2017-Dec-11 08:00N 40°40' W 074°02'0 0.0
2017-Dec-11 07:30N 40°40' W 074°02'0 0.0
2017-Dec-11 07:00N 40°40' W 074°02'0 0.1
2017-Dec-11 06:30N 40°40' W 074°02'0 0.1
2017-Dec-11 06:00N 40°40' W 074°02'0 0.2
2017-Dec-11 05:30N 40°40' W 074°03'0 0.3
2017-Dec-11 05:00N 40°40' W 074°03'0 0.1
2017-Dec-11 04:30N 40°40' W 074°03'0 0.0
2017-Dec-11 04:00N 40°40' W 074°03'0 0.0
2017-Dec-11 03:30N 40°40' W 074°03'0 0.0
2017-Dec-11 03:00N 40°40' W 074°03'0 0.0
2017-Dec-11 02:30N 40°40' W 074°03'0 0.0
2017-Dec-11 02:00N 40°40' W 074°03'0 0.0
2017-Dec-11 01:30N 40°40' W 074°03'0 0.0
2017-Dec-11 01:00N 40°40' W 074°03'0 0.0
2017-Dec-11 00:30N 40°40' W 074°03'0 0.0
2017-Dec-11 00:00N 40°40' W 074°03'0 0.0
2017-Dec-10 23:30N 40°40' W 074°03'0 0.0
2017-Dec-10 23:00N 40°40' W 074°03'1 1.3
2017-Dec-10 22:31N 40°39' W 074°03'1 1.5
2017-Dec-10 22:00N 40°40' W 074°02'2 4.1
2017-Dec-10 21:30N 40°41' W 074°01'4 7.6
2017-Dec-10 21:00N 40°45' W 073°58'4 7.1
2017-Dec-10 20:30N 40°47' W 073°55'3 5.3
2017-Dec-10 19:59N 40°48' W 073°51'3 5.1
2017-Dec-10 19:25N 40°48' W 073°48'3 7.1
2017-Dec-10 19:00N 40°51' W 073°46'4 8.1
2017-Dec-10 18:28N 40°54' W 073°42'44 7.5
2017-Dec-10 12:38N 41°06' W 072°46'2 7.4
2017-Dec-10 12:24N 41°07' W 072°44'3 7.4
2017-Dec-10 12:00N 41°07' W 072°40'3 7.1
2017-Dec-10 11:30N 41°08' W 072°35'4 7.2
2017-Dec-10 11:00N 41°09' W 072°31'4 7.4
2017-Dec-10 10:30N 41°10' W 072°26'4 7.6
2017-Dec-10 10:00N 41°11' W 072°21'4 8.0
2017-Dec-10 09:30N 41°12' W 072°16'5 9.0
2017-Dec-10 08:59N 41°13' W 072°10'92 6.7
2017-Dec-09 19:14N 42°16' W 070°40'2 8.3
2017-Dec-09 19:00N 42°18' W 070°42'4 8.4
2017-Dec-09 18:30N 42°20' W 070°47'4 8.4
2017-Dec-09 18:01N 42°23' W 070°51'4 7.5
2017-Dec-09 17:30N 42°21' W 070°56'3 6.6
2017-Dec-09 16:59N 42°20' W 071°00'3 6.8
2017-Dec-09 16:30N 42°23' W 071°03'1 1.4
2017-Dec-09 15:55N 42°23' W 071°01'0 0.0
2017-Dec-09 14:37N 42°23' W 071°01'0 0.0
2017-Dec-09 14:25N 42°23' W 071°01'0 0.0
2017-Dec-09 13:43N 42°23' W 071°01'0 0.0
2017-Dec-09 13:28N 42°23' W 071°01'0 0.0
2017-Dec-09 12:52N 42°23' W 071°01'0 0.0
2017-Dec-09 12:22N 42°23' W 071°01'0 0.0
2017-Dec-09 11:58N 42°23' W 071°01'0 0.0
2017-Dec-09 11:28N 42°23' W 071°01'0 0.0
2017-Dec-09 10:49N 42°23' W 071°01'0 0.0
2017-Dec-09 10:22N 42°23' W 071°01'0 0.0
2017-Dec-09 09:43N 42°23' W 071°01'0 0.0
2017-Dec-09 09:19N 42°23' W 071°01'0 0.0
2017-Dec-09 08:13N 42°23' W 071°01'0 0.0
2017-Dec-09 05:22N 42°23' W 071°01'0 0.0
2017-Dec-09 04:46N 42°23' W 071°01'0 0.0
2017-Dec-09 04:28N 42°23' W 071°01'0 0.0
2017-Dec-09 01:25N 42°23' W 071°01'0 0.0
2017-Dec-09 00:55N 42°23' W 071°01'0 0.0
2017-Dec-09 00:13N 42°23' W 071°01'0 0.0
2017-Dec-08 23:49N 42°23' W 071°01'0 0.0
2017-Dec-08 23:25N 42°23' W 071°01'0 0.0
2017-Dec-08 22:55N 42°23' W 071°01'0 0.0
2017-Dec-08 22:25N 42°23' W 071°01'0 0.0
2017-Dec-08 21:55N 42°23' W 071°01'0 0.0
2017-Dec-08 21:30N 42°23' W 071°01'0 0.0
2017-Dec-08 21:00N 42°23' W 071°01'0 0.0
2017-Dec-08 20:30N 42°23' W 071°01'0 0.0
2017-Dec-08 20:00N 42°23' W 071°01'0 0.0
2017-Dec-08 19:30N 42°23' W 071°01'0 0.0
2017-Dec-08 19:00N 42°23' W 071°01'0 0.0
2017-Dec-08 18:24N 42°23' W 071°01'0 0.1
2017-Dec-08 17:58N 42°23' W 071°01'0 0.9
2017-Dec-08 17:31N 42°23' W 071°01'1 1.8
2017-Dec-08 16:53N 42°23' W 071°03'2 4.7
2017-Dec-08 16:30N 42°21' W 071°02'3 4.8
2017-Dec-08 15:57N 42°20' W 070°59'0 0.1
2017-Dec-08 15:27N 42°20' W 070°58'0 0.0
2017-Dec-08 14:30N 42°20' W 070°58'0 0.1
2017-Dec-08 13:39N 42°20' W 070°58'0 0.1
2017-Dec-08 13:30N 42°20' W 070°58'0 0.0
2017-Dec-08 12:10N 42°20' W 070°58'0 0.1
2017-Dec-08 12:00N 42°20' W 070°58'0 0.0
2017-Dec-08 11:30N 42°20' W 070°58'0 0.0
2017-Dec-08 11:00N 42°20' W 070°58'0 0.0
2017-Dec-08 10:28N 42°20' W 070°58'0 0.2
2017-Dec-08 10:00N 42°20' W 070°58'2 3.3
2017-Dec-08 09:30N 42°21' W 070°56'2 4.2
2017-Dec-08 09:00N 42°22' W 070°54'2 4.5
2017-Dec-08 08:30N 42°23' W 070°51'2 4.7
2017-Dec-08 08:00N 42°22' W 070°49'2 4.8
2017-Dec-08 07:30N 42°20' W 070°46'3 5.2
2017-Dec-08 07:00N 42°18' W 070°44'3 5.1
2017-Dec-08 06:30N 42°16' W 070°41'3 5.2
2017-Dec-08 06:00N 42°14' W 070°40'3 5.1
2017-Dec-08 05:30N 42°12' W 070°38'3 5.1
2017-Dec-08 05:00N 42°09' W 070°37'177 5.6
2017-Dec-06 21:09N 40°28' W 073°50'1 7.5
2017-Dec-06 21:00N 40°28' W 073°51'  
2017-Dec-04 10:29N 40°48' W 073°59'0 0.1
2017-Dec-04 09:56N 40°48' W 073°59'0 0.0
2017-Dec-04 09:29N 40°48' W 073°59'0 0.0
2017-Dec-04 08:59N 40°48' W 073°59'0 0.0
2017-Dec-04 08:29N 40°48' W 073°59'0 0.0
2017-Dec-04 07:59N 40°48' W 073°59'0 0.0
2017-Dec-04 07:29N 40°48' W 073°59'0 0.0
2017-Dec-04 06:56N 40°48' W 073°59'0 0.0
2017-Dec-04 06:29N 40°48' W 073°59'0 0.0
2017-Dec-04 05:50N 40°48' W 073°59'0 0.0
2017-Dec-04 05:29N 40°48' W 073°59'0 0.0
2017-Dec-04 04:59N 40°48' W 073°59'0 0.0
2017-Dec-04 04:29N 40°48' W 073°59'0 0.3
2017-Dec-04 03:59N 40°48' W 073°59'0 0.1
2017-Dec-04 03:29N 40°48' W 073°59'0 0.1
2017-Dec-04 02:59N 40°48' W 073°59'0 0.0
2017-Dec-04 02:29N 40°48' W 073°59'0 0.0
2017-Dec-04 01:59N 40°48' W 073°59'0 0.0
2017-Dec-04 01:29N 40°48' W 073°59'0 0.0
2017-Dec-04 00:59N 40°48' W 073°59'0 0.0
2017-Dec-04 00:29N 40°48' W 073°59'0 0.0
2017-Dec-03 23:59N 40°48' W 073°59'0 0.0
2017-Dec-03 23:29N 40°48' W 073°59'0 0.3
2017-Dec-03 22:59N 40°48' W 073°59'0 0.2
2017-Dec-03 22:29N 40°48' W 073°59'0 0.0
2017-Dec-03 21:59N 40°48' W 073°59'0 0.0
2017-Dec-03 21:29N 40°48' W 073°59'0 0.0
2017-Dec-03 20:56N 40°48' W 073°59'0 0.0
2017-Dec-03 20:29N 40°48' W 073°59'0 0.0
2017-Dec-03 19:59N 40°48' W 073°59'0 0.0
2017-Dec-03 19:29N 40°48' W 073°59'0 0.0
2017-Dec-03 18:56N 40°48' W 073°59'0 0.0
2017-Dec-03 18:29N 40°48' W 073°59'0 0.0
2017-Dec-03 17:56N 40°48' W 073°59'0 0.0
2017-Dec-03 17:26N 40°48' W 073°59'0 0.0
2017-Dec-03 16:56N 40°48' W 073°59'0 0.1
2017-Dec-03 16:29N 40°48' W 073°59'0 0.1
2017-Dec-03 15:59N 40°48' W 073°59'0 0.3
2017-Dec-03 15:26N 40°48' W 073°59'0 0.1
2017-Dec-03 14:57N 40°48' W 073°59'0 0.0
2017-Dec-03 14:26N 40°48' W 073°59'0 0.0
2017-Dec-03 13:59N 40°48' W 073°59'0 0.0
2017-Dec-03 13:26N 40°48' W 073°59'0 0.0
2017-Dec-03 12:59N 40°48' W 073°59'0 0.0
2017-Dec-03 12:29N 40°48' W 073°59'0 0.0
2017-Dec-03 11:59N 40°48' W 073°59'0 0.0
2017-Dec-03 11:23N 40°48' W 073°59'0 0.0
2017-Dec-03 10:59N 40°48' W 073°59'0 0.0
2017-Dec-03 10:26N 40°48' W 073°59'0 0.2
2017-Dec-03 09:56N 40°48' W 073°59'0 0.2
2017-Dec-03 09:29N 40°48' W 073°59'0 0.0
2017-Dec-03 08:59N 40°48' W 073°59'0 0.0
2017-Dec-03 08:29N 40°48' W 073°59'0 0.0
2017-Dec-03 07:59N 40°48' W 073°59'0 0.0
2017-Dec-03 07:29N 40°48' W 073°59'0 0.0
2017-Dec-03 06:59N 40°48' W 073°59'0 0.0
2017-Dec-03 06:29N 40°48' W 073°59'0 0.0
2017-Dec-03 05:59N 40°48' W 073°59'0 0.0
2017-Dec-03 05:29N 40°48' W 073°59'0 0.0
2017-Dec-03 04:59N 40°48' W 073°59'0 0.0
2017-Dec-03 04:29N 40°48' W 073°59'0 0.1
2017-Dec-03 03:59N 40°48' W 073°59'0 0.2
2017-Dec-03 03:29N 40°48' W 073°59'0 0.4
2017-Dec-03 02:59N 40°48' W 073°59'0 0.0
2017-Dec-03 02:29N 40°48' W 073°59'0 0.0
2017-Dec-03 01:59N 40°48' W 073°59'0 0.0
2017-Dec-03 01:29N 40°48' W 073°59'0 0.0
2017-Dec-03 00:59N 40°48' W 073°59'0 0.0
2017-Dec-03 00:29N 40°48' W 073°59'0 0.0
2017-Dec-02 23:59N 40°48' W 073°59'0 0.0
2017-Dec-02 23:20N 40°48' W 073°59'0 0.0
2017-Dec-02 22:56N 40°48' W 073°59'0 0.1
2017-Dec-02 22:29N 40°48' W 073°59'0 0.3
2017-Dec-02 21:59N 40°48' W 073°59'0 0.1
2017-Dec-02 21:26N 40°48' W 073°59'0 0.0
2017-Dec-02 20:59N 40°48' W 073°59'0 0.0
2017-Dec-02 20:29N 40°48' W 073°59'0 0.0
2017-Dec-02 19:59N 40°48' W 073°59'0 0.0
2017-Dec-02 19:29N 40°48' W 073°59'0 0.0
2017-Dec-02 18:53N 40°48' W 073°59'0 0.0
2017-Dec-02 18:29N 40°48' W 073°59'0 0.0
2017-Dec-02 17:59N 40°48' W 073°59'0 0.0
2017-Dec-02 17:29N 40°48' W 073°59'0 0.0
2017-Dec-02 16:59N 40°48' W 073°59'0 0.0
2017-Dec-02 16:26N 40°48' W 073°59'0 0.0
2017-Dec-02 15:59N 40°48' W 073°59'0 0.1
2017-Dec-02 15:29N 40°48' W 073°59'0 0.4
2017-Dec-02 14:59N 40°48' W 073°59'0 0.0
2017-Dec-02 14:29N 40°48' W 073°59'0 0.1
2017-Dec-02 13:59N 40°48' W 073°59'0 0.0
2017-Dec-02 13:29N 40°48' W 073°59'0 0.0
2017-Dec-02 12:59N 40°48' W 073°59'0 0.0
2017-Dec-02 12:29N 40°48' W 073°59'0 0.0
2017-Dec-02 11:59N 40°48' W 073°59'0 0.0
2017-Dec-02 11:29N 40°48' W 073°59'0 0.0
2017-Dec-02 10:59N 40°48' W 073°59'0 0.0
2017-Dec-02 10:29N 40°48' W 073°59'0 0.0
2017-Dec-02 09:59N 40°48' W 073°59'0 0.0
2017-Dec-02 09:29N 40°48' W 073°59'0 0.3
2017-Dec-02 08:59N 40°48' W 073°59'0 0.2
2017-Dec-02 08:29N 40°48' W 073°59'0 0.0
2017-Dec-02 07:59N 40°48' W 073°59'0 0.0
2017-Dec-02 07:29N 40°48' W 073°59'0 0.0
2017-Dec-02 06:59N 40°48' W 073°59'0 0.0
2017-Dec-02 06:29N 40°48' W 073°59'0 0.0
2017-Dec-02 05:59N 40°48' W 073°59'0 0.0
2017-Dec-02 05:29N 40°48' W 073°59'0 0.0
2017-Dec-02 04:59N 40°48' W 073°59'0 0.0
2017-Dec-02 04:23N 40°48' W 073°59'0 0.0
2017-Dec-02 03:59N 40°48' W 073°59'0 0.0
2017-Dec-02 03:29N 40°48' W 073°59'0 0.0
2017-Dec-02 02:59N 40°48' W 073°59'0 0.1
2017-Dec-02 02:29N 40°48' W 073°59'0 0.4
2017-Dec-02 01:59N 40°48' W 073°59'0 0.1
2017-Dec-02 01:29N 40°48' W 073°59'0 0.1
2017-Dec-02 00:56N 40°48' W 073°59'0 0.0
2017-Dec-02 00:29N 40°48' W 073°59'0 0.0
2017-Dec-01 23:59N 40°48' W 073°59'0 0.1
2017-Dec-01 23:29N 40°48' W 073°59'0 0.0
2017-Dec-01 22:59N 40°48' W 073°59'0 0.0
2017-Dec-01 22:29N 40°48' W 073°59'0 0.2
2017-Dec-01 21:59N 40°48' W 073°59'0 0.2
2017-Dec-01 21:26N 40°48' W 073°59'0 0.1
2017-Dec-01 20:59N 40°48' W 073°59'0 0.0
2017-Dec-01 20:29N 40°48' W 073°59'0 0.0
2017-Dec-01 19:59N 40°48' W 073°59'0 0.0
2017-Dec-01 19:29N 40°48' W 073°59'0 0.0
2017-Dec-01 18:59N 40°48' W 073°59'0 0.0
2017-Dec-01 18:29N 40°48' W 073°59'0 0.0
2017-Dec-01 17:56N 40°48' W 073°59'0 0.0
2017-Dec-01 17:29N 40°48' W 073°59'  
Track history (hours):
 
Tides and Currents Weather Stations Pressure Air Temp Water Temp Dewpoint Dewpoint Depression Visibility Wind Speed Wind Dir Waves Ship Positions

Tasman Sea

Owner: Kirby Offshore Marine, LLC, Staten Island, NY. More information available from US FCC via Universal Licensing System and Coast Guard Vessel Documentation Center.

Last reported at 2017-Dec-11 17:00 UTC. Time now 2017-Dec-14 17:19 UTC.
Position N 40°40' W 074°03'.

Length 36 m; draft 6.7 m.

Type: . MMSI: 366910960.

Date/timePositionNaut miles runAvg speedWind from/ knotsBaromVisibWave heightAir tempDewpointWater temp
2017-Dec-11 17:00N 40°40' W 074°03'0 0.1
2017-Dec-11 16:30N 40°40' W 074°03'0 0.1
2017-Dec-11 16:00N 40°40' W 074°02'0 0.1
2017-Dec-11 15:30N 40°40' W 074°03'0 0.0
2017-Dec-11 15:00N 40°40' W 074°03'0 0.0
2017-Dec-11 14:30N 40°40' W 074°03'0 0.0
2017-Dec-11 14:00N 40°40' W 074°03'0 0.0
2017-Dec-11 13:30N 40°40' W 074°03'0 0.0
2017-Dec-11 13:00N 40°40' W 074°03'0 0.0
2017-Dec-11 12:30N 40°40' W 074°03'0 0.0
2017-Dec-11 12:00N 40°40' W 074°03'0 0.1
2017-Dec-11 11:30N 40°40' W 074°03'0 0.2
2017-Dec-11 10:57N 40°40' W 074°02'0 0.1
2017-Dec-11 10:30N 40°40' W 074°02'0 0.0
2017-Dec-11 10:00N 40°40' W 074°02'0 0.1
2017-Dec-11 09:30N 40°40' W 074°02'0 0.0
2017-Dec-11 09:00N 40°40' W 074°02'0 0.0
2017-Dec-11 08:30N 40°40' W 074°02'0 0.0
2017-Dec-11 08:00N 40°40' W 074°02'0 0.0
2017-Dec-11 07:30N 40°40' W 074°02'0 0.0
2017-Dec-11 07:00N 40°40' W 074°02'0 0.1
2017-Dec-11 06:30N 40°40' W 074°02'0 0.1
2017-Dec-11 06:00N 40°40' W 074°02'0 0.2
2017-Dec-11 05:30N 40°40' W 074°03'0 0.3
2017-Dec-11 05:00N 40°40' W 074°03'0 0.1
2017-Dec-11 04:30N 40°40' W 074°03'0 0.0
2017-Dec-11 04:00N 40°40' W 074°03'0 0.0
2017-Dec-11 03:30N 40°40' W 074°03'0 0.0
2017-Dec-11 03:00N 40°40' W 074°03'0 0.0
2017-Dec-11 02:30N 40°40' W 074°03'0 0.0
2017-Dec-11 02:00N 40°40' W 074°03'0 0.0
2017-Dec-11 01:30N 40°40' W 074°03'0 0.0
2017-Dec-11 01:00N 40°40' W 074°03'0 0.0
2017-Dec-11 00:30N 40°40' W 074°03'0 0.0
2017-Dec-11 00:00N 40°40' W 074°03'0 0.0
2017-Dec-10 23:30N 40°40' W 074°03'0 0.0
2017-Dec-10 23:00N 40°40' W 074°03'1 1.3
2017-Dec-10 22:31N 40°39' W 074°03'1 1.5
2017-Dec-10 22:00N 40°40' W 074°02'2 4.1
2017-Dec-10 21:30N 40°41' W 074°01'4 7.6
2017-Dec-10 21:00N 40°45' W 073°58'4 7.1
2017-Dec-10 20:30N 40°47' W 073°55'3 5.3
2017-Dec-10 19:59N 40°48' W 073°51'3 5.1
2017-Dec-10 19:25N 40°48' W 073°48'3 7.1
2017-Dec-10 19:00N 40°51' W 073°46'4 8.1
2017-Dec-10 18:28N 40°54' W 073°42'44 7.5
2017-Dec-10 12:38N 41°06' W 072°46'2 7.4
2017-Dec-10 12:24N 41°07' W 072°44'3 7.4
2017-Dec-10 12:00N 41°07' W 072°40'3 7.1
2017-Dec-10 11:30N 41°08' W 072°35'4 7.2
2017-Dec-10 11:00N 41°09' W 072°31'4 7.4
2017-Dec-10 10:30N 41°10' W 072°26'4 7.6
2017-Dec-10 10:00N 41°11' W 072°21'4 8.0
2017-Dec-10 09:30N 41°12' W 072°16'5 9.0
2017-Dec-10 08:59N 41°13' W 072°10'92 6.7
2017-Dec-09 19:14N 42°16' W 070°40'2 8.3
2017-Dec-09 19:00N 42°18' W 070°42'4 8.4
2017-Dec-09 18:30N 42°20' W 070°47'4 8.4
2017-Dec-09 18:01N 42°23' W 070°51'4 7.5
2017-Dec-09 17:30N 42°21' W 070°56'3 6.6
2017-Dec-09 16:59N 42°20' W 071°00'3 6.8
2017-Dec-09 16:30N 42°23' W 071°03'1 1.4
2017-Dec-09 15:55N 42°23' W 071°01'0 0.0
2017-Dec-09 14:37N 42°23' W 071°01'0 0.0
2017-Dec-09 14:25N 42°23' W 071°01'0 0.0
2017-Dec-09 13:43N 42°23' W 071°01'0 0.0
2017-Dec-09 13:28N 42°23' W 071°01'0 0.0
2017-Dec-09 12:52N 42°23' W 071°01'0 0.0
2017-Dec-09 12:22N 42°23' W 071°01'0 0.0
2017-Dec-09 11:58N 42°23' W 071°01'0 0.0
2017-Dec-09 11:28N 42°23' W 071°01'0 0.0
2017-Dec-09 10:49N 42°23' W 071°01'0 0.0
2017-Dec-09 10:22N 42°23' W 071°01'0 0.0
2017-Dec-09 09:43N 42°23' W 071°01'0 0.0
2017-Dec-09 09:19N 42°23' W 071°01'0 0.0
2017-Dec-09 08:13N 42°23' W 071°01'0 0.0
2017-Dec-09 05:22N 42°23' W 071°01'0 0.0
2017-Dec-09 04:46N 42°23' W 071°01'0 0.0
2017-Dec-09 04:28N 42°23' W 071°01'0 0.0
2017-Dec-09 01:25N 42°23' W 071°01'0 0.0
2017-Dec-09 00:55N 42°23' W 071°01'0 0.0
2017-Dec-09 00:13N 42°23' W 071°01'0 0.0
2017-Dec-08 23:49N 42°23' W 071°01'0 0.0
2017-Dec-08 23:25N 42°23' W 071°01'0 0.0
2017-Dec-08 22:55N 42°23' W 071°01'0 0.0
2017-Dec-08 22:25N 42°23' W 071°01'0 0.0
2017-Dec-08 21:55N 42°23' W 071°01'0 0.0
2017-Dec-08 21:30N 42°23' W 071°01'0 0.0
2017-Dec-08 21:00N 42°23' W 071°01'0 0.0
2017-Dec-08 20:30N 42°23' W 071°01'0 0.0
2017-Dec-08 20:00N 42°23' W 071°01'0 0.0
2017-Dec-08 19:30N 42°23' W 071°01'0 0.0
2017-Dec-08 19:00N 42°23' W 071°01'0 0.0
2017-Dec-08 18:24N 42°23' W 071°01'0 0.1
2017-Dec-08 17:58N 42°23' W 071°01'0 0.9
2017-Dec-08 17:31N 42°23' W 071°01'1 1.8
2017-Dec-08 16:53N 42°23' W 071°03'2 4.7
2017-Dec-08 16:30N 42°21' W 071°02'3 4.8
2017-Dec-08 15:57N 42°20' W 070°59'0 0.1
2017-Dec-08 15:27N 42°20' W 070°58'0 0.0
2017-Dec-08 14:30N 42°20' W 070°58'0 0.1
2017-Dec-08 13:39N 42°20' W 070°58'0 0.1
2017-Dec-08 13:30N 42°20' W 070°58'0 0.0
2017-Dec-08 12:10N 42°20' W 070°58'0 0.1
2017-Dec-08 12:00N 42°20' W 070°58'0 0.0
2017-Dec-08 11:30N 42°20' W 070°58'0 0.0
2017-Dec-08 11:00N 42°20' W 070°58'0 0.0
2017-Dec-08 10:28N 42°20' W 070°58'0 0.2
2017-Dec-08 10:00N 42°20' W 070°58'2 3.3
2017-Dec-08 09:30N 42°21' W 070°56'2 4.2
2017-Dec-08 09:00N 42°22' W 070°54'2 4.5
2017-Dec-08 08:30N 42°23' W 070°51'2 4.7
2017-Dec-08 08:00N 42°22' W 070°49'2 4.8
2017-Dec-08 07:30N 42°20' W 070°46'3 5.2
2017-Dec-08 07:00N 42°18' W 070°44'3 5.1
2017-Dec-08 06:30N 42°16' W 070°41'3 5.2
2017-Dec-08 06:00N 42°14' W 070°40'3 5.1
2017-Dec-08 05:30N 42°12' W 070°38'3 5.1
2017-Dec-08 05:00N 42°09' W 070°37'177 5.6
2017-Dec-06 21:09N 40°28' W 073°50'1 7.5
2017-Dec-06 21:00N 40°28' W 073°51'  
2017-Dec-04 10:29N 40°48' W 073°59'0 0.1
2017-Dec-04 09:56N 40°48' W 073°59'0 0.0
2017-Dec-04 09:29N 40°48' W 073°59'0 0.0
2017-Dec-04 08:59N 40°48' W 073°59'0 0.0
2017-Dec-04 08:29N 40°48' W 073°59'0 0.0
2017-Dec-04 07:59N 40°48' W 073°59'0 0.0
2017-Dec-04 07:29N 40°48' W 073°59'0 0.0
2017-Dec-04 06:56N 40°48' W 073°59'0 0.0
2017-Dec-04 06:29N 40°48' W 073°59'0 0.0
2017-Dec-04 05:50N 40°48' W 073°59'0 0.0
2017-Dec-04 05:29N 40°48' W 073°59'0 0.0
2017-Dec-04 04:59N 40°48' W 073°59'0 0.0
2017-Dec-04 04:29N 40°48' W 073°59'0 0.3
2017-Dec-04 03:59N 40°48' W 073°59'0 0.1
2017-Dec-04 03:29N 40°48' W 073°59'0 0.1
2017-Dec-04 02:59N 40°48' W 073°59'0 0.0
2017-Dec-04 02:29N 40°48' W 073°59'0 0.0
2017-Dec-04 01:59N 40°48' W 073°59'0 0.0
2017-Dec-04 01:29N 40°48' W 073°59'0 0.0
2017-Dec-04 00:59N 40°48' W 073°59'0 0.0
2017-Dec-04 00:29N 40°48' W 073°59'0 0.0
2017-Dec-03 23:59N 40°48' W 073°59'0 0.0
2017-Dec-03 23:29N 40°48' W 073°59'0 0.3
2017-Dec-03 22:59N 40°48' W 073°59'0 0.2
2017-Dec-03 22:29N 40°48' W 073°59'0 0.0
2017-Dec-03 21:59N 40°48' W 073°59'0 0.0
2017-Dec-03 21:29N 40°48' W 073°59'0 0.0
2017-Dec-03 20:56N 40°48' W 073°59'0 0.0
2017-Dec-03 20:29N 40°48' W 073°59'0 0.0
2017-Dec-03 19:59N 40°48' W 073°59'0 0.0
2017-Dec-03 19:29N 40°48' W 073°59'0 0.0
2017-Dec-03 18:56N 40°48' W 073°59'0 0.0
2017-Dec-03 18:29N 40°48' W 073°59'0 0.0
2017-Dec-03 17:56N 40°48' W 073°59'0 0.0
2017-Dec-03 17:26N 40°48' W 073°59'0 0.0
2017-Dec-03 16:56N 40°48' W 073°59'0 0.1
2017-Dec-03 16:29N 40°48' W 073°59'0 0.1
2017-Dec-03 15:59N 40°48' W 073°59'0 0.3
2017-Dec-03 15:26N 40°48' W 073°59'0 0.1
2017-Dec-03 14:57N 40°48' W 073°59'0 0.0
2017-Dec-03 14:26N 40°48' W 073°59'0 0.0
2017-Dec-03 13:59N 40°48' W 073°59'0 0.0
2017-Dec-03 13:26N 40°48' W 073°59'0 0.0
2017-Dec-03 12:59N 40°48' W 073°59'0 0.0
2017-Dec-03 12:29N 40°48' W 073°59'0 0.0
2017-Dec-03 11:59N 40°48' W 073°59'0 0.0
2017-Dec-03 11:23N 40°48' W 073°59'0 0.0
2017-Dec-03 10:59N 40°48' W 073°59'0 0.0
2017-Dec-03 10:26N 40°48' W 073°59'0 0.2
2017-Dec-03 09:56N 40°48' W 073°59'0 0.2
2017-Dec-03 09:29N 40°48' W 073°59'0 0.0
2017-Dec-03 08:59N 40°48' W 073°59'0 0.0
2017-Dec-03 08:29N 40°48' W 073°59'0 0.0
2017-Dec-03 07:59N 40°48' W 073°59'0 0.0
2017-Dec-03 07:29N 40°48' W 073°59'0 0.0
2017-Dec-03 06:59N 40°48' W 073°59'0 0.0
2017-Dec-03 06:29N 40°48' W 073°59'0 0.0
2017-Dec-03 05:59N 40°48' W 073°59'0 0.0
2017-Dec-03 05:29N 40°48' W 073°59'0 0.0
2017-Dec-03 04:59N 40°48' W 073°59'0 0.0
2017-Dec-03 04:29N 40°48' W 073°59'0 0.1
2017-Dec-03 03:59N 40°48' W 073°59'0 0.2
2017-Dec-03 03:29N 40°48' W 073°59'0 0.4
2017-Dec-03 02:59N 40°48' W 073°59'0 0.0
2017-Dec-03 02:29N 40°48' W 073°59'0 0.0
2017-Dec-03 01:59N 40°48' W 073°59'0 0.0
2017-Dec-03 01:29N 40°48' W 073°59'0 0.0
2017-Dec-03 00:59N 40°48' W 073°59'0 0.0
2017-Dec-03 00:29N 40°48' W 073°59'0 0.0
2017-Dec-02 23:59N 40°48' W 073°59'0 0.0
2017-Dec-02 23:20N 40°48' W 073°59'0 0.0
2017-Dec-02 22:56N 40°48' W 073°59'0 0.1
2017-Dec-02 22:29N 40°48' W 073°59'0 0.3
2017-Dec-02 21:59N 40°48' W 073°59'0 0.1
2017-Dec-02 21:26N 40°48' W 073°59'0 0.0
2017-Dec-02 20:59N 40°48' W 073°59'0 0.0
2017-Dec-02 20:29N 40°48' W 073°59'0 0.0
2017-Dec-02 19:59N 40°48' W 073°59'0 0.0
2017-Dec-02 19:29N 40°48' W 073°59'0 0.0
2017-Dec-02 18:53N 40°48' W 073°59'0 0.0
2017-Dec-02 18:29N 40°48' W 073°59'0 0.0
2017-Dec-02 17:59N 40°48' W 073°59'0 0.0
2017-Dec-02 17:29N 40°48' W 073°59'0 0.0
2017-Dec-02 16:59N 40°48' W 073°59'0 0.0
2017-Dec-02 16:26N 40°48' W 073°59'0 0.0
2017-Dec-02 15:59N 40°48' W 073°59'0 0.1
2017-Dec-02 15:29N 40°48' W 073°59'0 0.4
2017-Dec-02 14:59N 40°48' W 073°59'0 0.0
2017-Dec-02 14:29N 40°48' W 073°59'0 0.1
2017-Dec-02 13:59N 40°48' W 073°59'0 0.0
2017-Dec-02 13:29N 40°48' W 073°59'0 0.0
2017-Dec-02 12:59N 40°48' W 073°59'0 0.0
2017-Dec-02 12:29N 40°48' W 073°59'0 0.0
2017-Dec-02 11:59N 40°48' W 073°59'0 0.0
2017-Dec-02 11:29N 40°48' W 073°59'0 0.0
2017-Dec-02 10:59N 40°48' W 073°59'0 0.0
2017-Dec-02 10:29N 40°48' W 073°59'0 0.0
2017-Dec-02 09:59N 40°48' W 073°59'0 0.0
2017-Dec-02 09:29N 40°48' W 073°59'0 0.3
2017-Dec-02 08:59N 40°48' W 073°59'0 0.2
2017-Dec-02 08:29N 40°48' W 073°59'0 0.0
2017-Dec-02 07:59N 40°48' W 073°59'0 0.0
2017-Dec-02 07:29N 40°48' W 073°59'0 0.0
2017-Dec-02 06:59N 40°48' W 073°59'0 0.0
2017-Dec-02 06:29N 40°48' W 073°59'0 0.0
2017-Dec-02 05:59N 40°48' W 073°59'0 0.0
2017-Dec-02 05:29N 40°48' W 073°59'0 0.0
2017-Dec-02 04:59N 40°48' W 073°59'0 0.0
2017-Dec-02 04:23N 40°48' W 073°59'0 0.0
2017-Dec-02 03:59N 40°48' W 073°59'0 0.0
2017-Dec-02 03:29N 40°48' W 073°59'0 0.0
2017-Dec-02 02:59N 40°48' W 073°59'0 0.1
2017-Dec-02 02:29N 40°48' W 073°59'0 0.4
2017-Dec-02 01:59N 40°48' W 073°59'0 0.1
2017-Dec-02 01:29N 40°48' W 073°59'0 0.1
2017-Dec-02 00:56N 40°48' W 073°59'0 0.0
2017-Dec-02 00:29N 40°48' W 073°59'0 0.0
2017-Dec-01 23:59N 40°48' W 073°59'0 0.1
2017-Dec-01 23:29N 40°48' W 073°59'0 0.0
2017-Dec-01 22:59N 40°48' W 073°59'0 0.0
2017-Dec-01 22:29N 40°48' W 073°59'0 0.2
2017-Dec-01 21:59N 40°48' W 073°59'0 0.2
2017-Dec-01 21:26N 40°48' W 073°59'0 0.1
2017-Dec-01 20:59N 40°48' W 073°59'0 0.0
2017-Dec-01 20:29N 40°48' W 073°59'0 0.0
2017-Dec-01 19:59N 40°48' W 073°59'0 0.0
2017-Dec-01 19:29N 40°48' W 073°59'0 0.0
2017-Dec-01 18:59N 40°48' W 073°59'0 0.0
2017-Dec-01 18:29N 40°48' W 073°59'0 0.0
2017-Dec-01 17:56N 40°48' W 073°59'0 0.0
2017-Dec-01 17:29N 40°48' W 073°59'  

Dump ship's entire track history